createdAt,value
2018-10-02T00:03:33.632Z,42.85
2018-10-02T00:08:37.060Z,42.51
2018-10-02T00:14:43.531Z,42.80
2018-10-02T00:19:46.945Z,42.91
2018-10-02T00:24:50.380Z,42.87
2018-10-02T00:29:53.807Z,42.73
2018-10-02T00:34:57.272Z,43.12
2018-10-02T00:40:00.756Z,42.93
2018-10-02T00:45:04.336Z,43.01
2018-10-02T00:50:07.740Z,43.73
2018-10-02T00:55:11.207Z,43.68
2018-10-02T01:00:14.676Z,44.02
2018-10-02T01:05:18.116Z,43.96
2018-10-02T01:10:21.575Z,44.15
2018-10-02T01:15:25.027Z,44.11
2018-10-02T01:20:28.464Z,44.25
2018-10-02T01:25:31.912Z,43.95
2018-10-02T01:30:35.347Z,44.62
2018-10-02T01:35:38.801Z,44.78
2018-10-02T01:40:42.256Z,44.53
2018-10-02T01:45:45.774Z,44.57
2018-10-02T01:50:49.216Z,45.12
2018-10-02T01:55:52.644Z,44.81
2018-10-02T02:00:56.085Z,45.10
2018-10-02T02:05:59.527Z,44.95
2018-10-02T02:11:02.960Z,45.06
2018-10-02T02:16:06.431Z,44.92
2018-10-02T02:21:09.866Z,44.82
2018-10-02T02:26:13.317Z,45.29
2018-10-02T02:31:16.764Z,44.89
2018-10-02T02:36:20.215Z,45.02
2018-10-02T02:41:23.668Z,45.43
2018-10-02T02:46:27.148Z,45.53
2018-10-02T02:51:32.819Z,45.49
2018-10-02T02:56:36.245Z,45.22
2018-10-02T03:01:39.694Z,45.25
2018-10-02T03:06:43.116Z,45.19
2018-10-02T03:11:46.560Z,45.28
2018-10-02T03:16:49.979Z,45.50
2018-10-02T03:21:53.477Z,45.34
2018-10-02T03:26:56.844Z,45.78
2018-10-02T03:32:00.265Z,45.51
2018-10-02T03:37:03.685Z,45.80
2018-10-02T03:42:07.107Z,45.48
2018-10-02T03:47:10.533Z,45.81
2018-10-02T03:52:13.960Z,45.28
2018-10-02T03:57:17.508Z,45.18
2018-10-02T04:02:20.948Z,45.45
2018-10-02T04:07:24.402Z,45.14
2018-10-02T04:12:27.833Z,45.03
2018-10-02T04:17:31.297Z,44.97
2018-10-02T04:22:34.752Z,44.75
2018-10-02T04:27:38.565Z,44.80
2018-10-02T04:32:42.080Z,44.97
2018-10-02T04:37:45.512Z,44.99
2018-10-02T04:42:48.916Z,44.71
2018-10-02T04:47:54.144Z,45.13
2018-10-02T04:52:57.571Z,45.11
2018-10-02T04:58:01.011Z,44.63
2018-10-02T05:03:04.444Z,45.01
2018-10-02T05:08:07.868Z,44.80
2018-10-02T05:13:11.327Z,44.85
2018-10-02T05:18:14.737Z,44.84
2018-10-02T05:23:18.155Z,44.85
2018-10-02T05:28:21.612Z,44.94
2018-10-02T05:33:25.075Z,45.11
2018-10-02T05:38:28.508Z,44.84
2018-10-02T05:43:31.940Z,44.78
2018-10-02T05:48:35.393Z,44.93
2018-10-02T05:53:38.859Z,44.68
2018-10-02T05:58:42.339Z,44.87
2018-10-02T06:03:45.774Z,44.73
2018-10-02T06:08:49.208Z,44.82
2018-10-02T06:13:52.689Z,44.82
2018-10-02T06:18:56.122Z,44.79
2018-10-02T06:23:59.560Z,44.90
2018-10-02T06:29:02.989Z,44.55
2018-10-02T06:34:06.429Z,44.70
2018-10-02T06:39:09.912Z,44.81
2018-10-02T06:44:13.343Z,44.82
2018-10-02T06:49:16.811Z,44.76
2018-10-02T06:54:20.247Z,48.55
2018-10-02T06:59:23.673Z,50.19
2018-10-02T07:04:27.101Z,51.51
2018-10-02T07:09:30.512Z,52.46
2018-10-02T07:14:33.981Z,53.12
2018-10-02T07:19:37.437Z,49.54
2018-10-02T07:24:40.853Z,43.39
2018-10-02T07:29:44.272Z,41.64
2018-10-02T07:34:47.717Z,41.34
2018-10-02T07:39:51.158Z,41.29
2018-10-02T07:44:54.621Z,40.66
2018-10-02T07:49:58.027Z,40.91
2018-10-02T07:55:01.486Z,40.94
2018-10-02T08:00:05.694Z,40.91
2018-10-02T08:05:09.092Z,40.98
2018-10-02T08:10:12.531Z,41.05
2018-10-02T08:15:15.953Z,40.82
2018-10-02T08:20:19.386Z,40.81
2018-10-02T08:25:22.842Z,40.81
2018-10-02T08:30:26.417Z,40.78
2018-10-02T08:35:29.783Z,41.02
2018-10-02T08:40:33.212Z,41.42
2018-10-02T08:45:36.664Z,42.41
2018-10-02T08:50:40.169Z,42.36
2018-10-02T08:55:43.550Z,42.23
2018-10-02T09:00:47.029Z,41.11
2018-10-02T09:05:50.458Z,41.19
2018-10-02T09:10:53.889Z,40.69
2018-10-02T09:15:57.478Z,40.58
2018-10-02T09:21:00.755Z,40.29
2018-10-02T09:26:04.185Z,40.08
2018-10-02T09:31:13.076Z,40.50
2018-10-02T09:36:21.705Z,40.16
2018-10-02T09:41:30.445Z,40.31
2018-10-02T09:46:33.880Z,40.15
2018-10-02T09:51:37.360Z,40.20
2018-10-02T09:56:41.827Z,40.26
2018-10-02T10:01:50.269Z,40.07
2018-10-02T10:06:53.699Z,40.50
2018-10-02T10:11:57.125Z,40.79
2018-10-02T10:17:00.655Z,40.88
2018-10-02T10:22:04.005Z,41.19
2018-10-02T10:27:07.556Z,40.86
2018-10-02T10:32:11.328Z,40.99
2018-10-02T10:37:14.769Z,40.85
2018-10-02T10:42:18.209Z,41.17
2018-10-02T10:47:21.694Z,41.34
2018-10-02T10:52:25.180Z,41.01
2018-10-02T10:57:28.589Z,40.83
2018-10-02T11:02:32.014Z,40.63
2018-10-02T11:07:35.440Z,41.10
2018-10-02T11:12:38.974Z,40.81
2018-10-02T11:17:42.524Z,40.86
2018-10-02T11:22:45.929Z,40.81
2018-10-02T11:27:49.340Z,41.43
2018-10-02T11:32:52.818Z,41.23
2018-10-02T11:37:56.238Z,41.96
2018-10-02T11:42:59.682Z,41.69
2018-10-02T11:48:03.126Z,41.25
2018-10-02T11:53:06.839Z,41.33
2018-10-02T11:58:10.318Z,41.34
2018-10-02T12:03:13.877Z,41.96
2018-10-02T12:08:17.295Z,41.65
2018-10-02T12:13:20.830Z,42.03
2018-10-02T12:18:24.216Z,43.61
2018-10-02T12:23:27.664Z,43.30
2018-10-02T12:28:31.079Z,43.44
2018-10-02T12:33:34.495Z,43.15
2018-10-02T12:38:37.958Z,42.78
2018-10-02T12:43:41.341Z,42.44
2018-10-02T12:48:44.769Z,42.55
2018-10-02T12:53:48.201Z,42.68
2018-10-02T12:58:51.665Z,42.33
2018-10-02T13:03:55.133Z,43.51
2018-10-02T13:08:58.576Z,42.28
2018-10-02T13:14:01.999Z,41.75
2018-10-02T13:19:05.428Z,41.79
2018-10-02T13:24:08.881Z,42.79
2018-10-02T13:29:12.355Z,43.54
2018-10-02T13:34:15.845Z,43.60
2018-10-02T13:39:19.255Z,43.09
2018-10-02T13:44:22.685Z,42.72
2018-10-02T13:49:26.122Z,43.07
2018-10-02T13:54:29.581Z,43.07
2018-10-02T13:59:33.324Z,42.56
2018-10-02T14:04:36.728Z,42.92
2018-10-02T14:09:40.253Z,42.80
2018-10-02T14:14:43.845Z,42.42
2018-10-02T14:19:47.250Z,42.91
2018-10-02T14:35:55.632Z,42.67
2018-10-02T14:40:59.057Z,42.77
2018-10-02T14:46:02.601Z,42.96
2018-10-02T14:51:06.582Z,42.96
2018-10-02T14:56:10.278Z,42.83
2018-10-02T15:01:13.733Z,43.12
2018-10-02T15:06:17.294Z,43.10
2018-10-02T15:11:21.670Z,42.81
2018-10-02T15:16:25.332Z,43.12
2018-10-02T15:21:28.920Z,42.93
2018-10-02T15:26:32.405Z,42.79
2018-10-02T15:31:36.139Z,42.66
2018-10-02T15:36:39.577Z,42.54
2018-10-02T15:41:43.425Z,42.37
2018-10-02T15:46:46.925Z,42.09
2018-10-02T15:51:50.348Z,42.48
2018-10-02T15:56:53.964Z,42.27
2018-10-02T16:01:57.469Z,41.84
2018-10-02T16:07:01.081Z,42.44
2018-10-02T16:12:04.601Z,42.55
2018-10-02T16:17:08.038Z,42.33
2018-10-02T16:22:11.508Z,42.19
2018-10-02T16:27:15.073Z,41.88
2018-10-02T16:32:18.489Z,42.33
2018-10-02T16:37:22.006Z,42.03
2018-10-02T16:42:25.502Z,42.25
2018-10-02T16:47:28.965Z,41.98
2018-10-02T16:52:32.432Z,42.60
2018-10-02T16:57:35.894Z,42.45
2018-10-02T17:02:39.325Z,42.30
2018-10-02T17:07:42.773Z,42.67
2018-10-02T17:12:46.223Z,42.71
2018-10-02T17:17:49.811Z,42.35
2018-10-02T17:22:54.007Z,42.28
2018-10-02T17:27:57.945Z,42.33
2018-10-02T17:33:03.828Z,41.97
2018-10-02T17:38:08.075Z,41.19
2018-10-02T17:43:11.618Z,40.91
2018-10-02T17:48:15.148Z,40.79
2018-10-02T17:53:18.813Z,40.36
2018-10-02T17:58:22.337Z,40.75
2018-10-02T18:03:26.551Z,40.72
2018-10-02T18:08:30.217Z,40.50
2018-10-02T18:13:34.011Z,40.37
2018-10-02T18:18:37.589Z,40.64
2018-10-02T18:23:41.228Z,40.65
2018-10-02T18:28:44.699Z,40.44
2018-10-02T18:33:49.213Z,40.54
2018-10-02T18:38:52.707Z,40.29
2018-10-02T18:43:56.185Z,40.39
2018-10-02T18:48:59.767Z,40.24
2018-10-02T18:54:03.190Z,40.56
2018-10-02T18:59:06.732Z,40.65
2018-10-02T19:04:10.326Z,40.81
2018-10-02T19:09:17.330Z,40.60
2018-10-02T19:14:21.393Z,40.99
2018-10-02T19:19:31.708Z,41.07
2018-10-02T19:24:35.360Z,41.13
2018-10-02T19:29:38.912Z,41.04
2018-10-02T19:34:43.667Z,41.17
2018-10-02T19:39:47.205Z,40.86
2018-10-02T19:44:50.707Z,40.93
2018-10-02T19:49:54.348Z,41.17
2018-10-02T19:54:57.895Z,41.33
2018-10-02T20:00:01.465Z,41.30
2018-10-02T20:05:06.075Z,41.18
2018-10-02T20:10:09.604Z,41.50
2018-10-02T20:15:13.072Z,41.43
2018-10-02T20:20:16.630Z,41.34
2018-10-02T20:25:20.427Z,41.47
2018-10-02T20:30:26.162Z,41.15
2018-10-02T20:35:29.981Z,41.31
2018-10-02T20:40:33.517Z,41.24
2018-10-02T20:45:36.944Z,41.49
2018-10-02T20:50:40.499Z,41.39
2018-10-02T20:55:44.185Z,41.66
2018-10-02T21:00:47.912Z,41.66
2018-10-02T21:05:51.342Z,41.56
2018-10-02T21:10:55.147Z,41.36
2018-10-02T21:15:58.565Z,41.85
2018-10-02T21:21:01.972Z,41.46
2018-10-02T21:26:05.381Z,41.51
2018-10-02T21:31:09.114Z,41.58
2018-10-02T21:36:13.450Z,41.74
2018-10-02T21:41:16.965Z,41.84
2018-10-02T21:46:20.376Z,41.98
2018-10-02T21:51:23.874Z,42.13
2018-10-02T21:56:27.423Z,42.19
2018-10-02T22:01:31.198Z,41.89
2018-10-02T22:06:34.720Z,41.90
2018-10-02T22:11:38.194Z,42.33
2018-10-02T22:16:41.644Z,42.21
2018-10-02T22:21:45.073Z,42.11
2018-10-02T22:26:48.550Z,42.13
2018-10-02T22:31:52.012Z,42.28
2018-10-02T22:36:55.464Z,41.97
2018-10-02T22:41:58.910Z,42.06
2018-10-02T22:47:02.485Z,42.14
2018-10-02T22:52:06.071Z,42.36
2018-10-02T22:57:09.566Z,42.20
2018-10-02T23:02:13.044Z,42.53
2018-10-02T23:07:16.446Z,42.59
2018-10-02T23:12:19.856Z,42.35
2018-10-02T23:17:23.264Z,42.30
2018-10-02T23:22:26.693Z,42.30
2018-10-02T23:27:30.098Z,42.20
2018-10-02T23:32:33.524Z,42.66
2018-10-02T23:37:36.956Z,42.67
2018-10-02T23:42:40.377Z,42.26
2018-10-02T23:47:43.832Z,42.74
2018-10-02T23:52:47.232Z,42.65
2018-10-02T23:57:50.632Z,42.78
